createdAt,value
2018-02-20T00:02:10.348Z,22.00
2018-02-20T00:04:37.989Z,44.00
2018-02-20T00:07:05.626Z,32.57
2018-02-20T00:09:33.233Z,22.70
2018-02-20T00:12:00.857Z,18.97
2018-02-20T00:14:29.230Z,18.10
2018-02-20T00:16:56.888Z,21.10
2018-02-20T00:19:24.502Z,17.53
2018-02-20T00:21:52.131Z,23.77
2018-02-20T00:24:19.739Z,19.47
2018-02-20T00:26:48.130Z,21.87
2018-02-20T00:29:16.510Z,20.40
2018-02-20T00:31:45.056Z,21.80
2018-02-20T00:34:12.677Z,25.40
2018-02-20T00:36:41.088Z,18.77
2018-02-20T00:39:09.507Z,26.53
2018-02-20T00:41:37.155Z,19.23
2018-02-20T00:44:05.549Z,27.60
2018-02-20T00:46:33.186Z,23.30
2018-02-20T00:49:00.809Z,23.70
2018-02-20T00:51:28.457Z,23.03
2018-02-20T00:53:56.830Z,19.50
2018-02-20T00:56:24.421Z,26.50
2018-02-20T00:58:52.818Z,19.40
2018-02-20T01:01:20.466Z,21.23
2018-02-20T01:03:48.114Z,21.37
2018-02-20T01:06:15.751Z,18.73
2018-02-20T01:08:43.396Z,18.30
2018-02-20T01:11:11.937Z,20.27
2018-02-20T01:13:39.581Z,22.20
2018-02-20T01:16:07.188Z,19.23
2018-02-20T01:18:34.860Z,23.90
2018-02-20T01:21:02.633Z,29.37
2018-02-20T01:23:30.301Z,19.17
2018-02-20T01:25:57.893Z,24.87
2018-02-20T01:28:25.522Z,18.33
2018-02-20T01:30:54.047Z,22.70
2018-02-20T01:33:21.696Z,24.63
2018-02-20T01:35:49.397Z,24.97
2018-02-20T01:38:17.027Z,25.37
2018-02-20T01:40:45.484Z,17.90
2018-02-20T01:43:13.127Z,22.00
2018-02-20T01:45:40.757Z,22.50
2018-02-20T01:48:08.405Z,18.67
2018-02-20T01:50:36.010Z,18.40
2018-02-20T01:53:04.429Z,23.17
2018-02-20T01:55:32.057Z,36.40
2018-02-20T01:58:00.474Z,24.97
2018-02-20T02:00:28.921Z,32.60
2018-02-20T02:02:56.621Z,18.17
2018-02-20T02:05:24.250Z,26.33
2018-02-20T02:07:51.849Z,19.87
2018-02-20T02:10:19.478Z,25.63
2018-02-20T02:12:47.096Z,25.30
2018-02-20T02:15:14.731Z,18.47
2018-02-20T02:17:42.403Z,19.73
2018-02-20T02:20:10.042Z,21.13
2018-02-20T02:22:37.645Z,24.37
2018-02-20T02:25:05.275Z,21.70
2018-02-20T02:27:32.933Z,23.43
2018-02-20T02:30:00.619Z,25.67
2018-02-20T02:32:29.053Z,20.00
2018-02-20T02:34:56.752Z,17.60
2018-02-20T02:37:24.354Z,20.33
2018-02-20T02:39:52.012Z,22.83
2018-02-20T02:42:19.654Z,19.77
2018-02-20T02:44:47.275Z,26.40
2018-02-20T02:47:14.860Z,23.10
2018-02-20T02:49:42.464Z,24.83
2018-02-20T02:52:10.088Z,26.40
2018-02-20T02:54:37.841Z,24.67
2018-02-20T02:57:05.504Z,27.07
2018-02-20T02:59:33.149Z,24.10
2018-02-20T03:02:01.514Z,19.87
2018-02-20T03:04:29.152Z,30.67
2018-02-20T03:06:56.777Z,21.20
2018-02-20T03:09:24.360Z,24.47
2018-02-20T03:11:52.745Z,20.90
2018-02-20T03:14:23.164Z,22.70
2018-02-20T03:16:50.764Z,23.47
2018-02-20T03:19:19.200Z,22.13
2018-02-20T03:21:46.838Z,23.60
2018-02-20T03:24:15.218Z,31.73
2018-02-20T03:26:43.653Z,21.20
2018-02-20T03:29:11.268Z,31.77
2018-02-20T03:31:38.917Z,31.80
2018-02-20T03:34:06.512Z,21.63
2018-02-20T03:36:34.109Z,27.73
2018-02-20T03:39:02.484Z,29.37
2018-02-20T03:41:30.912Z,28.13
2018-02-20T03:43:58.521Z,24.87
2018-02-20T03:46:26.195Z,18.17
2018-02-20T03:48:53.789Z,26.87
2018-02-20T03:51:21.400Z,22.63
2018-02-20T03:53:49.077Z,30.90
2018-02-20T03:56:16.757Z,19.80
2018-02-20T03:58:44.418Z,28.50
2018-02-20T04:01:12.044Z,21.30
2018-02-20T04:03:39.688Z,25.13
2018-02-20T04:06:07.335Z,24.30
2018-02-20T04:08:34.974Z,28.73
2018-02-20T04:11:02.613Z,30.63
2018-02-20T04:13:30.233Z,30.57
2018-02-20T04:15:58.642Z,22.13
2018-02-20T04:21:23.305Z,25.20
2018-02-20T04:23:50.908Z,24.77
2018-02-20T04:26:18.584Z,28.87
2018-02-20T04:28:46.215Z,22.60
2018-02-20T04:31:13.841Z,25.93
2018-02-20T04:33:41.509Z,24.17
2018-02-20T04:36:09.157Z,21.77
2018-02-20T04:38:36.773Z,47.23
2018-02-20T04:41:04.364Z,25.27
2018-02-20T04:43:32.736Z,31.80
2018-02-20T04:46:00.338Z,23.10
2018-02-20T04:48:46.920Z,23.00
2018-02-20T04:51:14.513Z,23.13
2018-02-20T04:53:42.931Z,21.03
2018-02-20T04:56:10.559Z,41.23
2018-02-20T04:58:38.178Z,32.07
2018-02-20T05:01:05.844Z,28.70
2018-02-20T05:03:33.469Z,25.90
2018-02-20T05:06:01.128Z,27.17
2018-02-20T05:08:28.809Z,24.83
2018-02-20T05:10:56.414Z,23.47
2018-02-20T05:13:24.796Z,24.73
2018-02-20T05:15:53.204Z,29.17
2018-02-20T05:18:21.601Z,29.60
2018-02-20T05:20:50.000Z,19.60
2018-02-20T05:23:17.590Z,24.30
2018-02-20T05:25:45.214Z,28.03
2018-02-20T05:28:12.876Z,23.53
2018-02-20T05:30:40.511Z,25.73
2018-02-20T05:33:08.167Z,22.97
2018-02-20T05:35:35.786Z,22.70
2018-02-20T05:38:03.383Z,29.37
2018-02-20T05:40:31.198Z,23.77
2018-02-20T05:42:58.803Z,22.37
2018-02-20T05:45:26.433Z,18.23
2018-02-20T05:47:54.073Z,27.30
2018-02-20T05:50:22.465Z,23.93
2018-02-20T05:52:50.120Z,27.97
2018-02-20T05:55:18.566Z,22.77
2018-02-20T05:57:47.007Z,28.93
2018-02-20T06:00:14.633Z,20.73
2018-02-20T06:02:42.280Z,23.03
2018-02-20T06:05:11.416Z,25.37
2018-02-20T06:07:39.042Z,20.97
2018-02-20T06:10:08.173Z,22.03
2018-02-20T06:12:55.553Z,25.93
2018-02-20T06:15:23.205Z,25.13
2018-02-20T06:17:50.872Z,24.37
2018-02-20T06:23:25.056Z,28.17
2018-02-20T06:25:52.721Z,24.33
2018-02-20T06:28:20.340Z,24.90
2018-02-20T06:30:47.974Z,29.23
2018-02-20T06:33:15.842Z,29.77
2018-02-20T06:35:43.476Z,28.10
2018-02-20T06:38:11.095Z,30.17
2018-02-20T06:40:38.668Z,29.13
2018-02-20T06:43:06.323Z,31.47
2018-02-20T06:45:34.679Z,27.53
2018-02-20T06:48:02.426Z,26.90
2018-02-20T06:50:30.229Z,19.47
2018-02-20T06:52:57.983Z,30.37
2018-02-20T06:55:25.596Z,24.77
2018-02-20T06:57:54.039Z,26.77
2018-02-20T07:00:21.660Z,29.27
2018-02-20T07:02:49.357Z,25.63
2018-02-20T07:05:16.903Z,32.43
2018-02-20T07:07:44.527Z,24.53
2018-02-20T07:10:12.136Z,36.03
2018-02-20T07:12:39.818Z,24.60
2018-02-20T07:15:07.444Z,26.43
2018-02-20T07:17:35.114Z,25.97
2018-02-20T07:20:02.698Z,35.30
2018-02-20T07:22:30.356Z,30.83
2018-02-20T07:24:58.693Z,30.03
2018-02-20T07:27:26.340Z,31.40
2018-02-20T07:29:53.964Z,25.73
2018-02-20T07:32:21.592Z,24.50
2018-02-20T07:34:49.371Z,31.00
2018-02-20T07:37:17.085Z,31.13
2018-02-20T07:39:44.673Z,25.30
2018-02-20T07:42:13.089Z,25.23
2018-02-20T07:44:40.696Z,34.53
2018-02-20T07:47:08.304Z,22.50
2018-02-20T07:49:36.701Z,30.00
2018-02-20T07:52:05.105Z,28.53
2018-02-20T07:54:33.488Z,31.00
2018-02-20T07:57:01.928Z,26.60
2018-02-20T07:59:29.512Z,36.27
2018-02-20T08:01:57.166Z,45.38
2018-02-20T08:04:24.812Z,37.00
2018-02-20T08:06:53.234Z,34.20
2018-02-20T08:09:20.883Z,36.93
2018-02-20T08:11:48.548Z,31.40
2018-02-20T08:14:16.205Z,35.27
2018-02-20T08:16:44.646Z,42.93
2018-02-20T08:19:12.337Z,33.50
2018-02-20T08:21:39.984Z,33.57
2018-02-20T08:24:07.673Z,27.17
2018-02-20T08:26:35.267Z,28.43
2018-02-20T08:29:02.926Z,31.13
2018-02-20T08:31:30.571Z,25.23
2018-02-20T08:33:58.208Z,31.03
2018-02-20T08:36:25.791Z,26.60
2018-02-20T08:38:54.321Z,34.13
2018-02-20T08:41:21.896Z,27.23
2018-02-20T08:43:49.677Z,37.50
2018-02-20T08:46:17.705Z,29.73
2018-02-20T08:48:45.404Z,28.67
2018-02-20T08:51:13.813Z,40.03
2018-02-20T08:53:41.443Z,31.70
2018-02-20T08:56:09.163Z,31.37
2018-02-20T08:58:36.861Z,28.33
2018-02-20T09:01:04.457Z,35.83
2018-02-20T09:03:32.062Z,35.93
2018-02-20T09:06:00.448Z,31.53
2018-02-20T09:08:28.851Z,35.77
2018-02-20T09:10:56.457Z,39.93
2018-02-20T09:13:24.061Z,35.63
2018-02-20T09:15:52.618Z,32.03
2018-02-20T09:18:20.275Z,37.27
2018-02-20T09:20:52.872Z,33.50
2018-02-20T09:23:20.494Z,42.43
2018-02-20T09:25:51.683Z,35.40
2018-02-20T09:28:20.129Z,37.70
2018-02-20T09:30:47.809Z,35.33
2018-02-20T09:33:16.951Z,44.43
2018-02-20T09:35:45.382Z,37.93
2018-02-20T09:38:12.984Z,39.80
2018-02-20T09:40:40.614Z,40.27
2018-02-20T09:43:08.226Z,37.13
2018-02-20T09:45:35.886Z,39.20
2018-02-20T09:48:03.494Z,32.37
2018-02-20T09:50:31.940Z,35.97
2018-02-20T09:52:59.573Z,37.73
2018-02-20T09:55:27.952Z,34.43
2018-02-20T09:57:55.615Z,37.60
2018-02-20T10:00:24.028Z,33.60
2018-02-20T10:02:52.466Z,30.63
2018-02-20T10:05:20.130Z,35.57
2018-02-20T10:07:47.755Z,34.53
2018-02-20T10:10:15.344Z,37.80
2018-02-20T10:12:43.732Z,32.77
2018-02-20T10:15:12.151Z,43.20
2018-02-20T10:17:39.816Z,34.00
2018-02-20T10:20:07.450Z,36.63
2018-02-20T10:22:35.801Z,35.57
2018-02-20T10:25:03.449Z,38.63
2018-02-20T10:27:31.034Z,39.93
2018-02-20T10:29:58.647Z,34.27
2018-02-20T10:32:26.282Z,35.67
2018-02-20T10:34:53.905Z,37.47
2018-02-20T10:37:21.548Z,37.03
2018-02-20T10:39:49.156Z,40.47
2018-02-20T10:42:16.760Z,37.97
2018-02-20T10:44:44.325Z,31.73
2018-02-20T10:47:11.953Z,33.10
2018-02-20T10:49:39.735Z,35.27
2018-02-20T10:52:07.347Z,38.43
2018-02-20T10:54:35.736Z,37.03
2018-02-20T10:57:04.193Z,33.50
2018-02-20T10:59:31.796Z,30.80
2018-02-20T11:01:59.444Z,28.87
2018-02-20T11:04:27.116Z,29.33
2018-02-20T11:06:54.747Z,24.57
2018-02-20T11:09:22.345Z,28.63
2018-02-20T11:11:50.004Z,34.17
2018-02-20T11:14:17.708Z,33.23
2018-02-20T11:16:45.355Z,34.37
2018-02-20T11:19:12.998Z,31.63
2018-02-20T11:21:40.595Z,35.30
2018-02-20T11:24:08.189Z,33.73
2018-02-20T11:26:35.817Z,35.53
2018-02-20T11:29:03.467Z,31.87
2018-02-20T11:31:31.862Z,38.47
2018-02-20T11:33:59.524Z,26.80
2018-02-20T11:36:27.893Z,27.77
2018-02-20T11:38:55.490Z,30.53
2018-02-20T11:41:23.201Z,30.47
2018-02-20T11:43:50.827Z,30.43
2018-02-20T11:46:18.429Z,28.87
2018-02-20T11:48:46.813Z,31.60
2018-02-20T11:51:15.199Z,32.20
2018-02-20T11:53:42.782Z,29.87
2018-02-20T11:56:11.212Z,31.77
2018-02-20T11:58:38.839Z,27.83
2018-02-20T12:01:07.237Z,29.00
2018-02-20T12:03:35.601Z,25.40
2018-02-20T12:06:03.220Z,24.43
2018-02-20T12:08:31.002Z,25.27
2018-02-20T12:10:58.644Z,23.73
2018-02-20T12:13:26.233Z,21.37
2018-02-20T12:15:54.618Z,25.97
2018-02-20T12:18:22.964Z,22.13
2018-02-20T12:20:50.611Z,22.03
2018-02-20T12:23:18.216Z,26.87
2018-02-20T12:25:45.828Z,25.87
2018-02-20T12:28:13.455Z,24.40
2018-02-20T12:30:41.072Z,23.67
2018-02-20T12:33:09.587Z,24.83
2018-02-20T12:35:37.165Z,25.60
2018-02-20T12:38:04.817Z,26.30
2018-02-20T12:40:33.246Z,23.93
2018-02-20T12:43:00.874Z,26.80
2018-02-20T12:45:29.270Z,25.37
2018-02-20T12:47:57.759Z,23.27
2018-02-20T12:50:25.306Z,26.50
2018-02-20T12:52:52.924Z,31.37
2018-02-20T12:55:20.522Z,22.43
2018-02-20T12:57:48.205Z,27.73
2018-02-20T13:00:15.859Z,26.20
2018-02-20T13:02:43.473Z,23.03
2018-02-20T13:05:11.211Z,23.70
2018-02-20T13:07:38.873Z,24.10
2018-02-20T13:10:06.560Z,21.10
2018-02-20T13:12:34.213Z,25.27
2018-02-20T13:15:01.846Z,20.20
2018-02-20T13:17:30.253Z,25.17
2018-02-20T13:19:57.861Z,21.13
2018-02-20T13:22:25.650Z,23.50
2018-02-20T13:24:53.300Z,24.07
2018-02-20T13:27:20.934Z,23.73
2018-02-20T13:29:48.552Z,23.30
2018-02-20T13:32:16.185Z,26.57
2018-02-20T13:34:43.834Z,26.30
2018-02-20T13:37:11.450Z,27.13
2018-02-20T13:39:39.837Z,27.43
2018-02-20T13:42:08.255Z,31.17
2018-02-20T13:44:35.878Z,26.00
2018-02-20T13:47:03.519Z,27.00
2018-02-20T13:49:31.145Z,29.77
2018-02-20T13:51:58.736Z,28.23
2018-02-20T13:54:27.094Z,31.50
2018-02-20T13:56:55.512Z,32.07
2018-02-20T13:59:23.938Z,29.20
2018-02-20T14:01:51.570Z,28.93
2018-02-20T14:04:19.965Z,31.63
2018-02-20T14:06:48.349Z,36.37
2018-02-20T14:09:15.941Z,38.03
2018-02-20T14:11:44.350Z,33.30
2018-02-20T14:14:11.980Z,31.43
2018-02-20T14:16:39.612Z,33.73
2018-02-20T14:19:07.267Z,31.83
2018-02-20T14:21:34.933Z,34.43
2018-02-20T14:24:02.576Z,33.33
2018-02-20T14:26:30.158Z,32.77
2018-02-20T14:29:00.501Z,35.33
2018-02-20T14:31:28.154Z,32.83
2018-02-20T14:33:55.887Z,29.20
2018-02-20T14:36:23.553Z,29.43
2018-02-20T14:38:51.179Z,36.67
2018-02-20T14:41:18.821Z,26.27
2018-02-20T14:43:46.455Z,35.00
2018-02-20T14:46:14.069Z,35.97
2018-02-20T14:48:41.687Z,35.77
2018-02-20T14:51:10.049Z,35.77
2018-02-20T14:53:37.694Z,33.63
2018-02-20T14:56:05.373Z,34.27
2018-02-20T14:58:32.999Z,34.23
2018-02-20T15:01:02.424Z,38.30
2018-02-20T15:03:30.815Z,32.87
2018-02-20T15:05:58.417Z,31.53
2018-02-20T15:08:26.073Z,34.23
2018-02-20T15:10:53.648Z,32.90
2018-02-20T15:13:21.347Z,34.17
2018-02-20T15:15:48.960Z,31.63
2018-02-20T15:18:16.565Z,31.33
2018-02-20T15:20:44.174Z,30.43
2018-02-20T15:23:11.806Z,29.13
2018-02-20T15:25:39.417Z,29.23
2018-02-20T15:28:07.089Z,31.57
2018-02-20T15:30:34.785Z,24.77
2018-02-20T15:33:02.428Z,26.37
2018-02-20T15:35:30.044Z,32.17
2018-02-20T15:37:57.659Z,31.37
2018-02-20T15:40:25.315Z,27.43
2018-02-20T15:42:53.838Z,39.50
2018-02-20T15:45:21.458Z,40.17
2018-02-20T15:47:49.093Z,35.30
2018-02-20T15:50:16.716Z,41.27
2018-02-20T15:52:45.154Z,48.57
2018-02-20T15:55:12.848Z,35.13
2018-02-20T15:57:40.489Z,37.77
2018-02-20T16:00:08.084Z,33.50
2018-02-20T16:02:35.710Z,32.80
2018-02-20T16:05:04.068Z,41.33
2018-02-20T16:07:31.817Z,37.27
2018-02-20T16:09:59.434Z,36.67
2018-02-20T16:12:27.860Z,36.40
2018-02-20T16:14:55.458Z,32.10
2018-02-20T16:17:23.077Z,31.43
2018-02-20T16:19:51.468Z,35.60
2018-02-20T16:22:19.841Z,34.77
2018-02-20T16:24:47.505Z,41.27
2018-02-20T16:27:15.892Z,39.10
2018-02-20T16:29:43.512Z,56.77
2018-02-20T16:32:13.158Z,48.20
2018-02-20T16:34:40.863Z,67.93
2018-02-20T16:37:11.037Z,52.40
2018-02-20T16:39:40.057Z,45.03
2018-02-20T16:42:08.676Z,38.43
2018-02-20T16:44:36.313Z,32.03
2018-02-20T16:47:04.685Z,40.97
2018-02-20T16:49:32.425Z,45.63
2018-02-20T16:52:00.081Z,33.07
2018-02-20T16:54:27.732Z,35.07
2018-02-20T16:56:55.324Z,36.20
2018-02-20T16:59:22.961Z,39.33
2018-02-20T17:01:51.407Z,32.10
2018-02-20T17:04:19.152Z,36.03
2018-02-20T17:06:46.828Z,34.40
2018-02-20T17:09:14.505Z,32.43
2018-02-20T17:11:42.128Z,31.97
2018-02-20T17:14:09.767Z,37.07
2018-02-20T17:16:37.422Z,34.77
2018-02-20T17:19:05.036Z,30.60
2018-02-20T17:21:32.709Z,31.57
2018-02-20T17:24:00.287Z,31.33
2018-02-20T17:26:27.900Z,34.13
2018-02-20T17:28:56.281Z,33.40
2018-02-20T17:31:25.835Z,28.17
2018-02-20T17:33:53.455Z,31.97
2018-02-20T17:36:21.054Z,36.13
2018-02-20T17:38:49.453Z,34.77
2018-02-20T17:41:17.862Z,34.60
2018-02-20T17:43:46.240Z,37.10
2018-02-20T17:46:14.675Z,39.10
2018-02-20T17:48:42.350Z,28.93
2018-02-20T17:51:10.019Z,35.30
2018-02-20T17:53:37.685Z,34.50
2018-02-20T17:56:05.352Z,35.03
2018-02-20T17:58:33.879Z,35.17
2018-02-20T18:01:01.521Z,42.87
2018-02-20T18:03:29.131Z,39.83
2018-02-20T18:05:56.765Z,34.70
2018-02-20T18:08:24.444Z,35.10
2018-02-20T18:10:52.111Z,42.20
2018-02-20T18:13:19.777Z,35.33
2018-02-20T18:15:47.427Z,41.70
2018-02-20T18:18:15.415Z,46.30
2018-02-20T18:20:43.114Z,47.20
2018-02-20T18:23:10.763Z,42.53
2018-02-20T18:25:39.123Z,43.67
2018-02-20T18:28:06.804Z,44.53
2018-02-20T18:30:34.584Z,47.27
2018-02-20T18:33:02.290Z,44.13
2018-02-20T18:35:30.696Z,40.67
2018-02-20T18:37:58.428Z,40.53
2018-02-20T18:40:26.157Z,43.77
2018-02-20T18:42:53.826Z,40.83
2018-02-20T18:45:21.553Z,45.47
2018-02-20T18:47:49.237Z,40.33
2018-02-20T18:50:16.936Z,45.67
2018-02-20T18:52:44.600Z,45.90
2018-02-20T18:55:12.993Z,35.40
2018-02-20T18:57:41.464Z,42.20
2018-02-20T19:00:09.148Z,33.20
2018-02-20T19:02:36.859Z,34.10
2018-02-20T19:05:04.468Z,52.63
2018-02-20T19:07:32.117Z,35.43
2018-02-20T19:09:59.784Z,36.30
2018-02-20T19:12:27.436Z,39.50
2018-02-20T19:14:57.070Z,43.10
2018-02-20T19:17:24.736Z,34.30
2018-02-20T19:19:53.580Z,43.30
2018-02-20T19:22:21.176Z,39.43
2018-02-20T19:24:48.811Z,43.63
2018-02-20T19:27:16.444Z,46.50
2018-02-20T19:29:44.785Z,41.67
2018-02-20T19:32:12.552Z,43.93
2018-02-20T19:34:40.128Z,49.47
2018-02-20T19:37:11.279Z,70.00
2018-02-20T19:39:39.132Z,65.13
2018-02-20T19:42:06.758Z,57.80
2018-02-20T19:44:34.662Z,81.03
2018-02-20T19:47:03.117Z,68.70
2018-02-20T19:49:31.648Z,57.30
2018-02-20T19:51:59.292Z,54.23
2018-02-20T19:54:27.097Z,51.60
2018-02-20T19:56:54.818Z,50.00
2018-02-20T19:59:22.480Z,40.23
2018-02-20T20:01:50.276Z,45.83
2018-02-20T20:04:17.961Z,47.63
2018-02-20T20:06:45.584Z,44.97
2018-02-20T20:09:13.972Z,45.77
2018-02-20T20:11:42.390Z,42.60
2018-02-20T20:14:10.073Z,42.93
2018-02-20T20:16:37.724Z,35.33
2018-02-20T20:19:05.748Z,39.27
2018-02-20T20:21:33.489Z,46.43
2018-02-20T20:24:01.144Z,45.63
2018-02-20T20:26:29.551Z,40.73
2018-02-20T20:28:57.188Z,34.93
2018-02-20T20:31:24.795Z,48.77
2018-02-20T20:33:53.161Z,47.00
2018-02-20T20:36:21.631Z,45.33
2018-02-20T20:38:49.282Z,46.73
2018-02-20T20:41:17.043Z,47.63
2018-02-20T20:43:46.477Z,52.93
2018-02-20T20:46:14.071Z,48.43
2018-02-20T20:48:41.746Z,47.93
2018-02-20T20:51:10.318Z,50.23
2018-02-20T20:53:39.491Z,41.57
2018-02-20T20:56:07.885Z,38.83
2018-02-20T20:58:35.547Z,44.27
2018-02-20T21:01:03.934Z,39.63
2018-02-20T21:03:32.296Z,39.43
2018-02-20T21:05:59.967Z,40.70
2018-02-20T21:08:42.701Z,32.57
2018-02-20T21:11:10.333Z,30.70
2018-02-20T21:13:37.940Z,42.70
2018-02-20T21:16:13.671Z,37.23
2018-02-20T21:18:41.357Z,34.20
2018-02-20T21:21:08.980Z,44.40
2018-02-20T21:23:37.715Z,38.90
2018-02-20T21:26:05.446Z,50.43
2018-02-20T21:28:33.176Z,32.70
2018-02-20T21:31:00.858Z,38.30
2018-02-20T21:33:28.468Z,41.90
2018-02-20T21:35:56.108Z,40.57
2018-02-20T21:38:23.730Z,37.10
2018-02-20T21:40:52.123Z,45.53
2018-02-20T21:43:20.501Z,35.60
2018-02-20T21:45:48.147Z,38.07
2018-02-20T21:48:15.778Z,40.73
2018-02-20T21:50:43.421Z,35.40
2018-02-20T21:53:11.812Z,45.57
2018-02-20T21:55:39.647Z,41.30
2018-02-20T21:58:07.292Z,39.13
2018-02-20T22:00:35.656Z,34.87
2018-02-20T22:03:03.316Z,29.90
2018-02-20T22:05:30.937Z,33.50
2018-02-20T22:07:58.630Z,38.10
2018-02-20T22:10:26.228Z,33.20
2018-02-20T22:12:53.860Z,37.27
2018-02-20T22:15:21.460Z,39.93
2018-02-20T22:17:49.118Z,37.53
2018-02-20T22:20:16.821Z,38.73
2018-02-20T22:22:44.421Z,35.67
2018-02-20T22:25:12.049Z,44.70
2018-02-20T22:27:39.702Z,47.30
2018-02-20T22:30:07.336Z,36.67
2018-02-20T22:32:35.000Z,45.93
2018-02-20T22:35:02.641Z,40.23
2018-02-20T22:37:30.246Z,41.27
2018-02-20T22:39:58.636Z,44.03
2018-02-20T22:42:26.296Z,44.57
2018-02-20T22:44:53.934Z,40.93
2018-02-20T22:47:21.577Z,41.10
2018-02-20T22:49:50.018Z,40.07
2018-02-20T22:52:17.684Z,42.10
2018-02-20T22:54:45.302Z,38.37
2018-02-20T22:57:13.046Z,44.80
2018-02-20T22:59:40.708Z,40.77
2018-02-20T23:02:08.369Z,41.87
2018-02-20T23:04:35.988Z,32.30
2018-02-20T23:07:03.651Z,42.23
2018-02-20T23:09:31.269Z,39.77
2018-02-20T23:11:59.747Z,39.83
2018-02-20T23:14:27.343Z,45.30
2018-02-20T23:16:55.775Z,42.13
2018-02-20T23:19:23.444Z,43.83
2018-02-20T23:21:51.075Z,37.53
2018-02-20T23:24:19.512Z,41.83
2018-02-20T23:26:47.148Z,35.77
2018-02-20T23:29:15.558Z,38.33
2018-02-20T23:31:43.264Z,34.57
2018-02-20T23:34:10.875Z,40.87
2018-02-20T23:36:39.265Z,44.60
2018-02-20T23:39:07.631Z,39.60
2018-02-20T23:41:35.236Z,39.93
2018-02-20T23:44:02.948Z,36.23
2018-02-20T23:46:30.629Z,38.57
2018-02-20T23:48:58.294Z,28.33
2018-02-20T23:51:31.827Z,33.40
2018-02-20T23:53:59.430Z,39.33
2018-02-20T23:56:27.016Z,35.77
2018-02-20T23:58:55.433Z,33.13
